sensor_id;sensor_type;location;lat;lon;timestamp;pressure;altitude;pressure_sealevel;temperature;humidity
63903;BME280;50072;50.678;13.938;2024-01-06T00:01:37;98439.34;;;2.67;100.00
63903;BME280;50072;50.678;13.938;2024-01-06T00:04:09;98436.94;;;2.48;100.00
63903;BME280;50072;50.678;13.938;2024-01-06T00:06:37;98442.25;;;2.47;100.00
63903;BME280;50072;50.678;13.938;2024-01-06T00:09:05;98434.50;;;2.31;100.00
63903;BME280;50072;50.678;13.938;2024-01-06T00:11:31;98437.97;;;2.33;100.00
63903;BME280;50072;50.678;13.938;2024-01-06T00:13:57;98435.31;;;2.35;100.00
63903;BME280;50072;50.678;13.938;2024-01-06T00:16:24;98440.50;;;2.44;100.00
63903;BME280;50072;50.678;13.938;2024-01-06T00:18:52;98433.31;;;2.55;100.00
63903;BME280;50072;50.678;13.938;2024-01-06T00:21:17;98427.91;;;2.65;100.00
63903;BME280;50072;50.678;13.938;2024-01-06T00:23:44;98442.69;;;2.80;100.00
63903;BME280;50072;50.678;13.938;2024-01-06T00:26:12;98454.16;;;2.77;100.00
63903;BME280;50072;50.678;13.938;2024-01-06T00:28:46;98434.84;;;2.72;100.00
63903;BME280;50072;50.678;13.938;2024-01-06T00:31:15;98444.56;;;2.71;100.00
63903;BME280;50072;50.678;13.938;2024-01-06T00:33:51;98434.00;;;2.70;100.00
63903;BME280;50072;50.678;13.938;2024-01-06T00:36:25;98432.31;;;2.64;100.00
63903;BME280;50072;50.678;13.938;2024-01-06T00:38:56;98459.53;;;2.71;100.00
63903;BME280;50072;50.678;13.938;2024-01-06T00:41:30;98450.84;;;2.63;100.00
63903;BME280;50072;50.678;13.938;2024-01-06T00:43:57;98447.22;;;2.70;100.00
63903;BME280;50072;50.678;13.938;2024-01-06T00:46:24;98448.06;;;2.72;100.00
63903;BME280;50072;50.678;13.938;2024-01-06T00:48:56;98456.75;;;2.82;100.00
63903;BME280;50072;50.678;13.938;2024-01-06T00:51:28;98460.22;;;2.85;100.00
63903;BME280;50072;50.678;13.938;2024-01-06T00:53:56;98449.72;;;2.79;100.00
63903;BME280;50072;50.678;13.938;2024-01-06T00:56:25;98462.78;;;2.91;100.00
63903;BME280;50072;50.678;13.938;2024-01-06T00:58:52;98454.81;;;2.93;100.00
63903;BME280;50072;50.678;13.938;2024-01-06T01:01:20;98465.25;;;3.04;100.00
63903;BME280;50072;50.678;13.938;2024-01-06T01:03:47;98459.06;;;3.05;100.00
63903;BME280;50072;50.678;13.938;2024-01-06T01:06:18;98457.22;;;3.10;100.00
63903;BME280;50072;50.678;13.938;2024-01-06T01:08:59;98463.38;;;3.14;100.00
63903;BME280;50072;50.678;13.938;2024-01-06T01:11:27;98459.81;;;3.13;100.00
63903;BME280;50072;50.678;13.938;2024-01-06T01:14:00;98472.03;;;3.22;100.00
63903;BME280;50072;50.678;13.938;2024-01-06T01:16:27;98457.22;;;3.10;100.00
63903;BME280;50072;50.678;13.938;2024-01-06T01:18:58;98470.41;;;3.13;100.00
63903;BME280;50072;50.678;13.938;2024-01-06T01:21:29;98458.16;;;3.07;100.00
63903;BME280;50072;50.678;13.938;2024-01-06T01:23:57;98465.16;;;3.10;100.00
63903;BME280;50072;50.678;13.938;2024-01-06T01:26:25;98467.81;;;3.10;100.00
63903;BME280;50072;50.678;13.938;2024-01-06T01:28:57;98469.38;;;3.22;100.00
63903;BME280;50072;50.678;13.938;2024-01-06T01:31:23;98449.25;;;3.13;100.00
63903;BME280;50072;50.678;13.938;2024-01-06T01:34:00;98452.00;;;3.07;100.00
63903;BME280;50072;50.678;13.938;2024-01-06T01:36:33;98465.09;;;3.15;100.00
63903;BME280;50072;50.678;13.938;2024-01-06T01:39:03;98459.84;;;3.11;100.00
63903;BME280;50072;50.678;13.938;2024-01-06T01:41:29;98471.22;;;3.18;100.00
63903;BME280;50072;50.678;13.938;2024-01-06T01:43:58;98453.69;;;3.13;100.00
63903;BME280;50072;50.678;13.938;2024-01-06T01:46:31;98459.78;;;3.16;100.00
63903;BME280;50072;50.678;13.938;2024-01-06T01:49:00;98454.41;;;3.24;100.00
63903;BME280;50072;50.678;13.938;2024-01-06T01:51:35;98476.25;;;3.35;100.00
63903;BME280;50072;50.678;13.938;2024-01-06T01:54:07;98470.13;;;3.32;100.00
63903;BME280;50072;50.678;13.938;2024-01-06T01:56:36;98460.50;;;3.27;100.00
63903;BME280;50072;50.678;13.938;2024-01-06T01:59:14;98460.50;;;3.27;100.00
63903;BME280;50072;50.678;13.938;2024-01-06T02:01:42;98464.78;;;3.35;100.00
63903;BME280;50072;50.678;13.938;2024-01-06T02:04:15;98461.25;;;3.36;100.00
63903;BME280;50072;50.678;13.938;2024-01-06T02:06:41;98463.78;;;3.42;100.00
63903;BME280;50072;50.678;13.938;2024-01-06T02:09:07;98469.06;;;3.45;100.00
63903;BME280;50072;50.678;13.938;2024-01-06T02:11:33;98471.72;;;3.45;100.00
63903;BME280;50072;50.678;13.938;2024-01-06T02:14:02;98461.91;;;3.50;100.00
63903;BME280;50072;50.678;13.938;2024-01-06T02:16:29;98461.91;;;3.50;100.00
63903;BME280;50072;50.678;13.938;2024-01-06T02:18:56;98461.88;;;3.52;100.00
63903;BME280;50072;50.678;13.938;2024-01-06T02:21:42;98461.84;;;3.56;100.00
63903;BME280;50072;50.678;13.938;2024-01-06T02:24:11;98434.69;;;3.45;100.00
63903;BME280;50072;50.678;13.938;2024-01-06T02:26:37;98463.50;;;3.62;100.00
63903;BME280;50072;50.678;13.938;2024-01-06T02:29:04;98458.25;;;3.59;100.00
63903;BME280;50072;50.678;13.938;2024-01-06T02:31:29;98453.91;;;3.56;100.00
63903;BME280;50072;50.678;13.938;2024-01-06T02:34:01;98457.34;;;3.60;100.00
63903;BME280;50072;50.678;13.938;2024-01-06T02:36:36;98442.38;;;3.59;100.00
63903;BME280;50072;50.678;13.938;2024-01-06T02:39:02;98433.63;;;3.55;100.00
63903;BME280;50072;50.678;13.938;2024-01-06T02:41:27;98450.25;;;3.63;100.00
63903;BME280;50072;50.678;13.938;2024-01-06T02:43:57;98453.78;;;3.62;100.00
63903;BME280;50072;50.678;13.938;2024-01-06T02:46:23;98450.31;;;3.59;100.00
63903;BME280;50072;50.678;13.938;2024-01-06T02:48:56;98452.00;;;3.63;100.00
63903;BME280;50072;50.678;13.938;2024-01-06T02:51:31;98456.38;;;3.66;100.00
63903;BME280;50072;50.678;13.938;2024-01-06T02:53:58;98442.25;;;3.67;100.00
63903;BME280;50072;50.678;13.938;2024-01-06T02:56:26;98461.53;;;3.75;100.00
63903;BME280;50072;50.678;13.938;2024-01-06T02:58:53;98448.25;;;3.76;100.00
63903;BME280;50072;50.678;13.938;2024-01-06T03:01:24;98464.06;;;3.81;100.00
63903;BME280;50072;50.678;13.938;2024-01-06T03:03:56;98463.16;;;3.82;100.00
63903;BME280;50072;50.678;13.938;2024-01-06T03:06:25;98466.69;;;3.81;100.00
63903;BME280;50072;50.678;13.938;2024-01-06T03:08:53;98457.22;;;3.68;100.00
63903;BME280;50072;50.678;13.938;2024-01-06T03:11:27;98462.34;;;3.77;100.00
63903;BME280;50072;50.678;13.938;2024-01-06T03:14:07;98456.34;;;3.67;100.00
63903;BME280;50072;50.678;13.938;2024-01-06T03:16:35;98466.00;;;3.70;100.00
63903;BME280;50072;50.678;13.938;2024-01-06T03:19:06;98457.22;;;3.66;100.00
63903;BME280;50072;50.678;13.938;2024-01-06T03:21:33;98470.28;;;3.77;100.00
63903;BME280;50072;50.678;13.938;2024-01-06T03:24:00;98461.56;;;3.72;100.00
63903;BME280;50072;50.678;13.938;2024-01-06T03:26:27;98471.88;;;3.87;100.00
63903;BME280;50072;50.678;13.938;2024-01-06T03:28:59;98462.94;;;3.94;100.00
63903;BME280;50072;50.678;13.938;2024-01-06T03:31:25;98471.75;;;3.96;100.00
63903;BME280;50072;50.678;13.938;2024-01-06T03:33:51;98475.41;;;3.88;100.00
63903;BME280;50072;50.678;13.938;2024-01-06T03:36:24;98482.69;;;3.75;100.00
63903;BME280;50072;50.678;13.938;2024-01-06T03:38:55;98482.81;;;3.67;100.00
63903;BME280;50072;50.678;13.938;2024-01-06T03:41:22;98463.56;;;3.57;100.00
63903;BME280;50072;50.678;13.938;2024-01-06T03:43:58;98480.28;;;3.61;100.00
63903;BME280;50072;50.678;13.938;2024-01-06T03:46:24;98467.78;;;3.69;100.00
63903;BME280;50072;50.678;13.938;2024-01-06T03:48:53;98468.53;;;3.76;100.00
63903;BME280;50072;50.678;13.938;2024-01-06T03:51:21;98471.94;;;3.84;100.00
63903;BME280;50072;50.678;13.938;2024-01-06T03:53:49;98469.25;;;3.86;100.00
63903;BME280;50072;50.678;13.938;2024-01-06T03:56:16;98473.63;;;3.88;100.00
63903;BME280;50072;50.678;13.938;2024-01-06T03:58:42;98462.31;;;3.80;100.00
63903;BME280;50072;50.678;13.938;2024-01-06T04:01:18;98479.81;;;3.87;100.00
63903;BME280;50072;50.678;13.938;2024-01-06T04:03:47;98468.34;;;3.88;100.00
63903;BME280;50072;50.678;13.938;2024-01-06T04:06:19;98474.50;;;3.89;100.00
63903;BME280;50072;50.678;13.938;2024-01-06T04:08:52;98473.44;;;4.01;100.00
63903;BME280;50072;50.678;13.938;2024-01-06T04:11:21;98454.22;;;3.89;100.00
63903;BME280;50072;50.678;13.938;2024-01-06T04:13:47;98473.53;;;3.94;100.00
63903;BME280;50072;50.678;13.938;2024-01-06T04:16:21;98476.16;;;3.94;100.00
63903;BME280;50072;50.678;13.938;2024-01-06T04:18:52;98473.75;;;3.82;100.00
63903;BME280;50072;50.678;13.938;2024-01-06T04:21:17;98475.66;;;3.74;100.00
63903;BME280;50072;50.678;13.938;2024-01-06T04:23:50;98482.69;;;3.75;100.00
63903;BME280;50072;50.678;13.938;2024-01-06T04:26:16;98479.31;;;3.65;100.00
63903;BME280;50072;50.678;13.938;2024-01-06T04:28:48;98483.75;;;3.63;100.00
63903;BME280;50072;50.678;13.938;2024-01-06T04:31:13;98473.31;;;3.55;100.00
63903;BME280;50072;50.678;13.938;2024-01-06T04:33:39;98467.38;;;3.41;100.00
63903;BME280;50072;50.678;13.938;2024-01-06T04:36:07;98477.00;;;3.45;100.00
63903;BME280;50072;50.678;13.938;2024-01-06T04:38:37;98465.50;;;3.46;100.00
63903;BME280;50072;50.678;13.938;2024-01-06T04:41:07;98470.72;;;3.52;100.00
63903;BME280;50072;50.678;13.938;2024-01-06T04:43:33;98474.00;;;3.67;100.00
63903;BME280;50072;50.678;13.938;2024-01-06T04:46:08;98471.31;;;3.70;100.00
63903;BME280;50072;50.678;13.938;2024-01-06T04:48:41;98462.50;;;3.69;100.00
63903;BME280;50072;50.678;13.938;2024-01-06T04:51:07;98471.03;;;3.85;100.00
63903;BME280;50072;50.678;13.938;2024-01-06T04:53:36;98455.41;;;3.71;100.00
63903;BME280;50072;50.678;13.938;2024-01-06T04:56:07;98476.38;;;3.84;100.00
63903;BME280;50072;50.678;13.938;2024-01-06T04:58:33;98463.16;;;3.82;100.00
63903;BME280;50072;50.678;13.938;2024-01-06T05:01:03;98473.69;;;3.85;100.00
63903;BME280;50072;50.678;13.938;2024-01-06T05:03:37;98459.63;;;3.82;100.00
63903;BME280;50072;50.678;13.938;2024-01-06T05:06:04;98460.44;;;3.87;100.00
63903;BME280;50072;50.678;13.938;2024-01-06T05:08:32;98484.09;;;3.94;100.00
63903;BME280;50072;50.678;13.938;2024-01-06T05:11:10;98478.88;;;3.91;100.00
63903;BME280;50072;50.678;13.938;2024-01-06T05:13:37;98473.56;;;3.91;100.00
63903;BME280;50072;50.678;13.938;2024-01-06T05:16:08;98490.09;;;4.06;100.00
63903;BME280;50072;50.678;13.938;2024-01-06T05:18:35;98493.59;;;4.08;100.00
63903;BME280;50072;50.678;13.938;2024-01-06T05:21:08;98478.75;;;3.97;100.00
63903;BME280;50072;50.678;13.938;2024-01-06T05:23:34;98496.31;;;4.05;100.00
63903;BME280;50072;50.678;13.938;2024-01-06T05:26:05;98485.00;;;3.95;100.00
63903;BME280;50072;50.678;13.938;2024-01-06T05:28:37;98491.84;;;4.07;100.00
63903;BME280;50072;50.678;13.938;2024-01-06T05:31:03;98484.25;;;3.87;100.00
63903;BME280;50072;50.678;13.938;2024-01-06T05:33:29;98503.59;;;3.90;100.00
63903;BME280;50072;50.678;13.938;2024-01-06T05:35:58;98490.56;;;3.79;100.00
63903;BME280;50072;50.678;13.938;2024-01-06T05:38:29;98501.88;;;3.86;100.00
63903;BME280;50072;50.678;13.938;2024-01-06T05:40:57;98502.63;;;3.94;100.00
63903;BME280;50072;50.678;13.938;2024-01-06T05:43:24;98495.50;;;4.00;100.00
63903;BME280;50072;50.678;13.938;2024-01-06T05:45:57;98502.66;;;3.93;100.00
63903;BME280;50072;50.678;13.938;2024-01-06T05:48:23;98513.22;;;3.94;100.00
63903;BME280;50072;50.678;13.938;2024-01-06T05:50:51;98514.94;;;3.98;100.00
63903;BME280;50072;50.678;13.938;2024-01-06T05:53:23;98523.59;;;4.08;100.00
63903;BME280;50072;50.678;13.938;2024-01-06T05:55:58;98509.53;;;4.05;100.00
63903;BME280;50072;50.678;13.938;2024-01-06T05:58:26;98509.66;;;3.97;100.00
63903;BME280;50072;50.678;13.938;2024-01-06T06:00:51;98522.72;;;4.08;100.00
63903;BME280;50072;50.678;13.938;2024-01-06T06:03:19;98531.38;;;4.16;100.00
63903;BME280;50072;50.678;13.938;2024-01-06T06:05:54;98541.06;;;4.19;100.00
63903;BME280;50072;50.678;13.938;2024-01-06T06:08:27;98537.72;;;4.07;100.00
63903;BME280;50072;50.678;13.938;2024-01-06T06:10:56;98550.13;;;4.05;100.00
63903;BME280;50072;50.678;13.938;2024-01-06T06:13:31;98554.75;;;3.92;100.00
63903;BME280;50072;50.678;13.938;2024-01-06T06:16:00;98550.31;;;3.93;100.00
63903;BME280;50072;50.678;13.938;2024-01-06T06:18:26;98556.50;;;3.93;100.00
63903;BME280;50072;50.678;13.938;2024-01-06T06:20:54;98555.75;;;3.85;100.00
63903;BME280;50072;50.678;13.938;2024-01-06T06:23:27;98555.97;;;3.70;100.00
63903;BME280;50072;50.678;13.938;2024-01-06T06:26:02;98548.03;;;3.70;100.00
63903;BME280;50072;50.678;13.938;2024-01-06T06:28:31;98558.47;;;3.79;100.00
63903;BME280;50072;50.678;13.938;2024-01-06T06:30:56;98532.28;;;3.60;100.00
63903;BME280;50072;50.678;13.938;2024-01-06T06:33:26;98569.81;;;3.87;100.00
63903;BME280;50072;50.678;13.938;2024-01-06T06:36:02;98574.13;;;3.93;100.00
63903;BME280;50072;50.678;13.938;2024-01-06T06:38:28;98579.22;;;4.07;100.00
63903;BME280;50072;50.678;13.938;2024-01-06T06:40:57;98583.44;;;4.17;100.00
63903;BME280;50072;50.678;13.938;2024-01-06T06:43:28;98575.63;;;4.11;100.00
63903;BME280;50072;50.678;13.938;2024-01-06T06:45:55;98582.63;;;4.15;100.00
63903;BME280;50072;50.678;13.938;2024-01-06T06:48:24;98578.19;;;4.15;100.00
63903;BME280;50072;50.678;13.938;2024-01-06T06:50:50;98589.63;;;4.16;100.00
63903;BME280;50072;50.678;13.938;2024-01-06T06:53:17;98599.50;;;4.08;100.00
63903;BME280;50072;50.678;13.938;2024-01-06T06:55:43;98598.56;;;4.12;100.00
63903;BME280;50072;50.678;13.938;2024-01-06T06:58:10;98605.63;;;4.10;100.00
63903;BME280;50072;50.678;13.938;2024-01-06T07:00:36;98601.31;;;4.04;100.00
63903;BME280;50072;50.678;13.938;2024-01-06T07:03:04;98599.59;;;4.02;100.00
63903;BME280;50072;50.678;13.938;2024-01-06T07:05:30;98590.84;;;3.98;100.00
63903;BME280;50072;50.678;13.938;2024-01-06T07:08:00;98578.59;;;3.91;100.00
63903;BME280;50072;50.678;13.938;2024-01-06T07:10:26;98579.41;;;3.94;100.00
63903;BME280;50072;50.678;13.938;2024-01-06T07:12:53;98597.56;;;4.19;100.00
63903;BME280;50072;50.678;13.938;2024-01-06T07:15:21;98600.09;;;4.25;100.00
63903;BME280;50072;50.678;13.938;2024-01-06T07:17:48;98610.59;;;4.30;100.00
63903;BME280;50072;50.678;13.938;2024-01-06T07:20:14;98605.34;;;4.28;100.00
63903;BME280;50072;50.678;13.938;2024-01-06T07:22:40;98605.34;;;4.28;100.00
63903;BME280;50072;50.678;13.938;2024-01-06T07:25:07;98613.28;;;4.28;100.00
63903;BME280;50072;50.678;13.938;2024-01-06T07:27:34;98629.94;;;4.37;100.00
63903;BME280;50072;50.678;13.938;2024-01-06T07:30:00;98622.03;;;4.34;100.00
63903;BME280;50072;50.678;13.938;2024-01-06T07:32:27;98633.31;;;4.45;100.00
63903;BME280;50072;50.678;13.938;2024-01-06T07:34:53;98639.50;;;4.45;100.00
63903;BME280;50072;50.678;13.938;2024-01-06T07:37:20;98641.44;;;4.34;100.00
63903;BME280;50072;50.678;13.938;2024-01-06T07:39:46;98651.31;;;4.24;100.00
63903;BME280;50072;50.678;13.938;2024-01-06T07:42:13;98645.94;;;4.27;100.00
63903;BME280;50072;50.678;13.938;2024-01-06T07:44:38;98642.28;;;4.38;100.00
63903;BME280;50072;50.678;13.938;2024-01-06T07:47:04;98642.31;;;4.35;100.00
63903;BME280;50072;50.678;13.938;2024-01-06T07:49:32;98645.81;;;4.37;100.00
63903;BME280;50072;50.678;13.938;2024-01-06T07:51:59;98659.22;;;4.26;100.00
63903;BME280;50072;50.678;13.938;2024-01-06T07:54:25;98662.84;;;4.20;100.00
63903;BME280;50072;50.678;13.938;2024-01-06T07:56:52;98663.66;;;4.25;100.00
63903;BME280;50072;50.678;13.938;2024-01-06T07:59:18;98654.78;;;4.28;100.00
63903;BME280;50072;50.678;13.938;2024-01-06T08:01:46;98660.00;;;4.32;100.00
63903;BME280;50072;50.678;13.938;2024-01-06T08:04:13;98660.78;;;4.41;100.00
63903;BME280;50072;50.678;13.938;2024-01-06T08:06:39;98666.16;;;4.33;100.00
63903;BME280;50072;50.678;13.938;2024-01-06T08:09:04;98665.19;;;4.42;100.00
63903;BME280;50072;50.678;13.938;2024-01-06T08:11:31;98667.66;;;4.51;100.00
63903;BME280;50072;50.678;13.938;2024-01-06T08:13:57;98678.13;;;4.60;100.00
63903;BME280;50072;50.678;13.938;2024-01-06T08:16:29;98678.00;;;4.66;100.00
63903;BME280;50072;50.678;13.938;2024-01-06T08:18:55;98682.44;;;4.64;100.00
63903;BME280;50072;50.678;13.938;2024-01-06T08:21:22;98677.13;;;4.64;100.00
63903;BME280;50072;50.678;13.938;2024-01-06T08:23:48;98669.19;;;4.64;100.00
63903;BME280;50072;50.678;13.938;2024-01-06T08:26:15;98687.59;;;4.74;100.00
63903;BME280;50072;50.678;13.938;2024-01-06T08:28:40;98696.44;;;4.73;100.00
63903;BME280;50072;50.678;13.938;2024-01-06T08:31:07;98696.38;;;4.76;100.00
63903;BME280;50072;50.678;13.938;2024-01-06T08:33:37;98692.84;;;4.77;100.00
63903;BME280;50072;50.678;13.938;2024-01-06T08:36:05;98691.78;;;4.86;100.00
63903;BME280;50072;50.678;13.938;2024-01-06T08:38:31;98700.47;;;4.95;100.00
63903;BME280;50072;50.678;13.938;2024-01-06T08:40:58;98695.13;;;4.97;100.00
63903;BME280;50072;50.678;13.938;2024-01-06T08:43:24;98692.38;;;5.01;100.00
63903;BME280;50072;50.678;13.938;2024-01-06T08:45:51;98700.34;;;5.01;100.00
63903;BME280;50072;50.678;13.938;2024-01-06T08:48:18;98706.41;;;5.08;100.00
63903;BME280;50072;50.678;13.938;2024-01-06T08:50:46;98708.31;;;5.01;100.00
63903;BME280;50072;50.678;13.938;2024-01-06T08:53:12;98710.06;;;5.03;100.00
63903;BME280;50072;50.678;13.938;2024-01-06T08:55:40;98713.38;;;5.14;100.00
63903;BME280;50072;50.678;13.938;2024-01-06T08:58:06;98703.94;;;4.99;100.00
63903;BME280;50072;50.678;13.938;2024-01-06T09:00:33;98703.00;;;5.01;100.00
63903;BME280;50072;50.678;13.938;2024-01-06T09:02:59;98722.31;;;5.10;100.00
63903;BME280;50072;50.678;13.938;2024-01-06T09:05:26;98727.78;;;5.00;100.00
63903;BME280;50072;50.678;13.938;2024-01-06T09:07:55;98726.16;;;4.93;100.00
63903;BME280;50072;50.678;13.938;2024-01-06T09:10:24;98727.78;;;5.00;100.00
63903;BME280;50072;50.678;13.938;2024-01-06T09:12:50;98726.09;;;4.96;100.00
63903;BME280;50072;50.678;13.938;2024-01-06T09:15:16;98708.34;;;4.98;100.00
63903;BME280;50072;50.678;13.938;2024-01-06T09:17:43;98715.56;;;4.92;100.00
63903;BME280;50072;50.678;13.938;2024-01-06T09:20:11;98721.63;;;4.98;100.00
63903;BME280;50072;50.678;13.938;2024-01-06T09:22:43;98724.31;;;4.95;100.00
63903;BME280;50072;50.678;13.938;2024-01-06T09:25:11;98711.16;;;4.91;100.00
63903;BME280;50072;50.678;13.938;2024-01-06T09:27:38;98735.66;;;5.05;100.00
63903;BME280;50072;50.678;13.938;2024-01-06T09:30:09;98733.09;;;5.00;100.00
63903;BME280;50072;50.678;13.938;2024-01-06T09:32:36;98732.25;;;4.97;100.00
63903;BME280;50072;50.678;13.938;2024-01-06T09:35:02;98730.47;;;4.99;100.00
63903;BME280;50072;50.678;13.938;2024-01-06T09:37:31;98747.06;;;5.10;100.00
63903;BME280;50072;50.678;13.938;2024-01-06T09:39:58;98733.81;;;5.10;100.00
63903;BME280;50072;50.678;13.938;2024-01-06T09:42:27;98724.00;;;5.14;100.00
63903;BME280;50072;50.678;13.938;2024-01-06T09:44:55;98739.78;;;5.20;100.00
63903;BME280;50072;50.678;13.938;2024-01-06T09:47:22;98727.47;;;5.19;100.00
63903;BME280;50072;50.678;13.938;2024-01-06T09:49:50;98730.94;;;5.21;100.00
63903;BME280;50072;50.678;13.938;2024-01-06T09:52:22;98724.06;;;5.11;100.00
63903;BME280;50072;50.678;13.938;2024-01-06T09:54:53;98725.75;;;5.15;100.00
63903;BME280;50072;50.678;13.938;2024-01-06T09:57:24;98742.31;;;5.28;100.00
63903;BME280;50072;50.678;13.938;2024-01-06T09:59:53;98741.38;;;5.32;100.00
63903;BME280;50072;50.678;13.938;2024-01-06T10:02:20;98740.44;;;5.34;100.00
63903;BME280;50072;50.678;13.938;2024-01-06T10:04:49;98733.44;;;5.30;100.00
63903;BME280;50072;50.678;13.938;2024-01-06T10:07:15;98735.25;;;5.27;100.00
63903;BME280;50072;50.678;13.938;2024-01-06T10:09:41;98734.47;;;5.23;100.00
63903;BME280;50072;50.678;13.938;2024-01-06T10:12:10;98737.28;;;5.12;100.00
63903;BME280;50072;50.678;13.938;2024-01-06T10:14:37;98709.91;;;5.12;100.00
63903;BME280;50072;50.678;13.938;2024-01-06T10:17:06;98718.56;;;5.20;100.00
63903;BME280;50072;50.678;13.938;2024-01-06T10:19:35;98720.25;;;5.27;100.00
63903;BME280;50072;50.678;13.938;2024-01-06T10:22:02;98725.47;;;5.30;100.00
63903;BME280;50072;50.678;13.938;2024-01-06T10:24:28;98725.28;;;5.40;100.00
63903;BME280;50072;50.678;13.938;2024-01-06T10:26:56;98728.03;;;5.35;100.00
63903;BME280;50072;50.678;13.938;2024-01-06T10:29:22;98729.81;;;5.34;100.00
63903;BME280;50072;50.678;13.938;2024-01-06T10:31:48;98714.81;;;5.33;100.00
63903;BME280;50072;50.678;13.938;2024-01-06T10:34:15;98725.28;;;5.40;100.00
63903;BME280;50072;50.678;13.938;2024-01-06T10:36:43;98721.75;;;5.41;100.00
63903;BME280;50072;50.678;13.938;2024-01-06T10:39:10;98725.13;;;5.49;100.00
63903;BME280;50072;50.678;13.938;2024-01-06T10:41:39;98719.03;;;5.44;100.00
63903;BME280;50072;50.678;13.938;2024-01-06T10:44:15;98718.22;;;5.40;100.00
63903;BME280;50072;50.678;13.938;2024-01-06T10:46:44;98726.19;;;5.40;100.00
63903;BME280;50072;50.678;13.938;2024-01-06T10:49:12;98726.72;;;5.58;100.00
63903;BME280;50072;50.678;13.938;2024-01-06T10:51:38;98721.50;;;5.53;100.00
63903;BME280;50072;50.678;13.938;2024-01-06T10:54:06;98726.78;;;5.55;100.00
63903;BME280;50072;50.678;13.938;2024-01-06T10:56:43;98727.44;;;5.66;100.00
63903;BME280;50072;50.678;13.938;2024-01-06T10:59:12;98729.09;;;5.70;100.00
63903;BME280;50072;50.678;13.938;2024-01-06T11:01:39;98719.31;;;5.74;100.00
63903;BME280;50072;50.678;13.938;2024-01-06T11:04:08;98729.78;;;5.80;100.00
63903;BME280;50072;50.678;13.938;2024-01-06T11:06:37;98735.16;;;5.77;100.00
63903;BME280;50072;50.678;13.938;2024-01-06T11:09:17;98737.28;;;5.59;100.00
63903;BME280;50072;50.678;13.938;2024-01-06T11:11:45;98731.25;;;5.51;100.00
63903;BME280;50072;50.678;13.938;2024-01-06T11:14:23;98734.91;;;5.45;100.00
63903;BME280;50072;50.678;13.938;2024-01-06T11:16:51;98723.66;;;5.32;100.00
63903;BME280;50072;50.678;13.938;2024-01-06T11:25:19;98728.81;;;5.42;100.00
63903;BME280;50072;50.678;13.938;2024-01-06T11:27:49;98714.50;;;5.49;100.00
63903;BME280;50072;50.678;13.938;2024-01-06T11:30:25;98707.75;;;5.76;100.00
63903;BME280;50072;50.678;13.938;2024-01-06T11:32:56;98696.13;;;5.82;100.00
63903;BME280;50072;50.678;13.938;2024-01-06T11:35:37;98710.09;;;5.92;100.00
63903;BME280;50072;50.678;13.938;2024-01-06T11:38:07;98695.22;;;5.81;100.00
63903;BME280;50072;50.678;13.938;2024-01-06T11:40:37;98717.44;;;5.79;100.00
63903;BME280;50072;50.678;13.938;2024-01-06T11:43:03;98719.38;;;5.70;100.00
63903;BME280;50072;50.678;13.938;2024-01-06T11:45:36;98712.13;;;5.79;100.00
63903;BME280;50072;50.678;13.938;2024-01-06T11:48:05;98706.47;;;5.97;100.00
63903;BME280;50072;50.678;13.938;2024-01-06T11:50:35;98714.38;;;5.99;100.00
63903;BME280;50072;50.678;13.938;2024-01-06T11:53:04;98713.56;;;5.94;100.00
63903;BME280;50072;50.678;13.938;2024-01-06T11:55:31;98716.19;;;5.95;100.00
63903;BME280;50072;50.678;13.938;2024-01-06T11:57:59;98711.78;;;5.94;100.00
63903;BME280;50072;50.678;13.938;2024-01-06T12:00:29;98701.06;;;6.00;100.00
63903;BME280;50072;50.678;13.938;2024-01-06T12:03:01;98706.78;;;5.80;100.00
63903;BME280;50072;50.678;13.938;2024-01-06T12:05:28;98706.81;;;5.79;100.00
63903;BME280;50072;50.678;13.938;2024-01-06T12:08:02;98695.13;;;5.87;100.00
63903;BME280;50072;50.678;13.938;2024-01-06T12:10:33;98698.59;;;5.90;100.00
63903;BME280;50072;50.678;13.938;2024-01-06T12:13:02;98713.53;;;5.95;100.00
63903;BME280;50072;50.678;13.938;2024-01-06T12:15:33;98716.19;;;5.95;100.00
63903;BME280;50072;50.678;13.938;2024-01-06T12:18:03;98706.47;;;5.94;100.00
63903;BME280;50072;50.678;13.938;2024-01-06T12:20:30;98709.22;;;5.90;100.00
63903;BME280;50072;50.678;13.938;2024-01-06T12:22:57;98708.09;;;6.03;100.00
63903;BME280;50072;50.678;13.938;2024-01-06T12:25:25;98717.97;;;5.95;100.00
63903;BME280;50072;50.678;13.938;2024-01-06T12:27:52;98724.69;;;6.14;100.00
63903;BME280;50072;50.678;13.938;2024-01-06T12:30:22;98713.34;;;6.06;100.00
63903;BME280;50072;50.678;13.938;2024-01-06T12:32:51;98719.28;;;6.17;100.00
63903;BME280;50072;50.678;13.938;2024-01-06T12:35:21;98711.47;;;6.10;100.00
63903;BME280;50072;50.678;13.938;2024-01-06T12:37:49;98718.75;;;6.01;100.00
63903;BME280;50072;50.678;13.938;2024-01-06T12:40:16;98718.66;;;6.06;100.00
63903;BME280;50072;50.678;13.938;2024-01-06T12:42:44;98726.31;;;6.20;100.00
63903;BME280;50072;50.678;13.938;2024-01-06T12:45:10;98720.50;;;6.02;100.00
63903;BME280;50072;50.678;13.938;2024-01-06T12:47:38;98713.28;;;6.09;100.00
63903;BME280;50072;50.678;13.938;2024-01-06T12:50:06;98726.41;;;6.15;100.00
63903;BME280;50072;50.678;13.938;2024-01-06T12:52:35;98718.63;;;6.08;100.00
63903;BME280;50072;50.678;13.938;2024-01-06T12:55:04;98715.81;;;6.14;100.00
63903;BME280;50072;50.678;13.938;2024-01-06T12:57:30;98720.22;;;6.15;100.00
63903;BME280;50072;50.678;13.938;2024-01-06T12:59:58;98722.25;;;6.03;100.00
63903;BME280;50072;50.678;13.938;2024-01-06T13:02:24;98721.44;;;6.00;100.00
63903;BME280;50072;50.678;13.938;2024-01-06T13:04:53;98712.44;;;6.05;100.00